createdAt,value
2023-02-05T00:02:04.340Z,13.27
2023-02-05T00:12:08.658Z,12.73
2023-02-05T00:22:13.235Z,13.60
2023-02-05T00:32:16.499Z,12.27
2023-02-05T00:42:21.032Z,12.63
2023-02-05T00:52:24.287Z,11.20
2023-02-05T01:02:29.078Z,12.43
2023-02-05T01:12:33.224Z,14.27
2023-02-05T01:22:37.725Z,11.43
2023-02-05T01:32:42.665Z,13.17
2023-02-05T01:42:47.443Z,13.13
2023-02-05T01:52:51.105Z,16.90
2023-02-05T02:02:55.687Z,17.77
2023-02-05T02:12:59.178Z,12.23
2023-02-05T02:23:17.039Z,12.70
2023-02-05T02:33:26.714Z,10.67
2023-02-05T02:43:33.787Z,11.47
2023-02-05T02:53:42.419Z,13.77
2023-02-05T03:03:53.381Z,12.57
2023-02-05T03:13:58.503Z,14.10
2023-02-05T03:24:07.557Z,12.27
2023-02-05T03:34:23.758Z,13.70
2023-02-05T03:44:58.165Z,15.57
2023-02-05T03:55:10.253Z,16.87
2023-02-05T04:05:16.078Z,13.07
2023-02-05T04:15:22.062Z,14.87
2023-02-05T04:25:29.364Z,12.60
2023-02-05T04:35:38.275Z,12.57
2023-02-05T04:45:41.693Z,14.43
2023-02-05T04:55:46.253Z,14.23
2023-02-05T05:05:49.526Z,15.20
2023-02-05T05:15:56.774Z,12.37
2023-02-05T05:26:00.134Z,13.70
2023-02-05T05:36:05.451Z,13.23
2023-02-05T05:46:09.377Z,15.70
2023-02-05T05:56:14.252Z,12.10
2023-02-05T06:06:17.499Z,14.57
2023-02-05T06:16:22.113Z,19.10
2023-02-05T06:26:25.394Z,15.03
2023-02-05T06:36:29.939Z,14.00
2023-02-05T06:46:33.219Z,12.00
2023-02-05T06:56:37.850Z,16.03
2023-02-05T07:06:41.006Z,15.00
2023-02-05T07:16:45.629Z,15.83
2023-02-05T07:26:48.783Z,17.07
2023-02-05T07:36:53.600Z,15.17
2023-02-05T07:46:56.824Z,15.90
2023-02-05T07:57:04.870Z,16.33
2023-02-05T08:07:09.207Z,16.17
2023-02-05T08:17:13.771Z,14.17
2023-02-05T08:27:16.988Z,14.33
2023-02-05T08:37:21.540Z,14.03
2023-02-05T08:47:24.731Z,14.17
2023-02-05T08:57:30.230Z,14.10
2023-02-05T09:07:33.449Z,13.27
2023-02-05T09:17:38.159Z,13.77
2023-02-05T09:27:41.413Z,14.43
2023-02-05T09:37:45.971Z,13.90
2023-02-05T09:47:59.977Z,12.40
2023-02-05T09:58:07.891Z,13.33
2023-02-05T10:08:19.482Z,13.63
2023-02-05T10:18:32.520Z,11.90
2023-02-05T10:29:06.178Z,11.17
2023-02-05T10:39:15.357Z,12.93
2023-02-05T10:49:25.484Z,12.90
2023-02-05T10:59:33.428Z,12.90
2023-02-05T11:09:36.614Z,11.67
2023-02-05T11:19:41.397Z,10.17
2023-02-05T11:29:45.020Z,13.67
2023-02-05T11:39:54.881Z,13.10
2023-02-05T11:49:59.848Z,12.07
2023-02-05T12:00:22.838Z,10.97
2023-02-05T12:10:32.335Z,11.60
2023-02-05T12:20:41.165Z,13.53
2023-02-05T12:30:59.960Z,12.70
2023-02-05T12:41:16.912Z,10.20
2023-02-05T12:51:31.993Z,10.13
2023-02-05T13:01:43.579Z,5.40
2023-02-05T13:11:52.346Z,4.90
2023-02-05T13:22:16.252Z,6.13
2023-02-05T13:32:25.293Z,6.13
2023-02-05T13:42:59.529Z,7.57
2023-02-05T13:53:23.004Z,10.30
2023-02-05T14:03:35.333Z,9.93
2023-02-05T14:13:38.679Z,6.33
2023-02-05T14:24:00.902Z,6.80
2023-02-05T14:34:28.815Z,9.63
2023-02-05T14:44:36.368Z,8.03
2023-02-05T14:54:46.960Z,11.87
2023-02-05T15:04:54.584Z,7.43
2023-02-05T15:14:59.403Z,9.13
2023-02-05T15:25:09.272Z,7.37
2023-02-05T15:35:16.452Z,8.27
2023-02-05T15:45:25.415Z,6.07
2023-02-05T15:55:29.224Z,6.87
2023-02-05T16:05:34.285Z,6.50
2023-02-05T16:15:42.089Z,6.90
2023-02-05T16:25:50.352Z,5.30
2023-02-05T16:35:54.450Z,7.53
2023-02-05T16:46:26.077Z,6.07
2023-02-05T16:56:32.196Z,8.07
2023-02-05T17:06:38.500Z,7.63
2023-02-05T17:16:42.789Z,9.77
2023-02-05T17:26:48.356Z,9.73
2023-02-05T17:36:52.085Z,8.03
2023-02-05T17:46:56.797Z,8.70
2023-02-05T17:57:11.405Z,9.23
2023-02-05T18:07:23.419Z,7.27
2023-02-05T18:17:26.637Z,9.63
2023-02-05T18:27:31.441Z,15.37
2023-02-05T18:37:37.212Z,7.57
2023-02-05T18:47:41.734Z,9.20
2023-02-05T18:57:44.934Z,6.70
2023-02-05T19:07:49.511Z,6.50
2023-02-05T19:17:55.303Z,9.10
2023-02-05T19:28:00.061Z,6.90
2023-02-05T19:38:03.393Z,7.20
2023-02-05T19:48:08.036Z,7.67
2023-02-05T19:58:12.454Z,7.87
2023-02-05T20:08:17.138Z,7.93
2023-02-05T20:18:20.429Z,10.90
2023-02-05T20:28:26.264Z,9.77
2023-02-05T20:38:29.708Z,10.03
2023-02-05T20:48:34.320Z,9.73
2023-02-05T20:58:37.651Z,10.77
2023-02-05T21:08:43.607Z,12.47
2023-02-05T21:18:48.208Z,11.53
2023-02-05T21:28:55.900Z,10.50
2023-02-05T21:38:59.118Z,11.43
2023-02-05T21:49:04.140Z,10.30
2023-02-05T21:59:08.040Z,9.30
2023-02-05T22:09:15.039Z,10.20
2023-02-05T22:19:18.432Z,8.70
2023-02-05T22:29:22.995Z,5.70
2023-02-05T22:39:26.150Z,5.37
2023-02-05T22:49:30.711Z,8.27
2023-02-05T22:59:33.831Z,5.83
2023-02-05T23:09:38.444Z,5.57
2023-02-05T23:19:41.601Z,5.00
2023-02-05T23:29:46.156Z,5.30
2023-02-05T23:39:49.323Z,5.53
2023-02-05T23:49:53.865Z,5.43
2023-02-05T23:59:57.043Z,6.10
